createdAt,value
2023-06-07T00:04:43.471Z,2.97
2023-06-07T00:07:11.738Z,3.60
2023-06-07T00:09:38.211Z,3.33
2023-06-07T00:14:34.200Z,3.72
2023-06-07T00:17:00.508Z,3.42
2023-06-07T00:19:27.586Z,3.35
2023-06-07T00:21:54.034Z,3.20
2023-06-07T00:26:47.940Z,3.50
2023-06-07T00:29:17.464Z,3.47
2023-06-07T00:31:43.780Z,3.60
2023-06-07T00:34:10.429Z,3.17
2023-06-07T00:36:36.889Z,3.47
2023-06-07T00:41:32.607Z,3.35
2023-06-07T00:46:28.978Z,3.05
2023-06-07T00:48:57.900Z,3.30
2023-06-07T00:51:27.223Z,3.22
2023-06-07T00:53:54.323Z,3.50
2023-06-07T00:56:20.772Z,3.38
2023-06-07T01:01:14.143Z,3.33
2023-06-07T01:06:07.607Z,3.28
2023-06-07T01:11:02.738Z,3.15
2023-06-07T01:13:30.838Z,3.05
2023-06-07T01:15:57.355Z,3.08
2023-06-07T01:18:25.561Z,3.45
2023-06-07T01:20:56.489Z,3.20
2023-06-07T01:23:36.075Z,3.10
2023-06-07T01:26:03.294Z,3.22
2023-06-07T01:28:34.856Z,3.10
2023-06-07T01:31:02.430Z,2.80
2023-06-07T01:33:30.993Z,2.78
2023-06-07T01:35:59.097Z,2.45
2023-06-07T01:38:28.772Z,2.53
2023-06-07T01:40:55.970Z,3.03
2023-06-07T01:43:22.986Z,3.10
2023-06-07T01:45:51.060Z,3.22
2023-06-07T01:48:17.639Z,2.75
2023-06-07T01:50:43.954Z,2.88
2023-06-07T01:53:10.839Z,3.33
2023-06-07T01:55:38.244Z,2.88
2023-06-07T01:58:10.581Z,2.90
2023-06-07T02:00:49.576Z,3.10
2023-06-07T02:03:20.908Z,3.17
2023-06-07T02:05:53.915Z,3.50
2023-06-07T02:08:40.013Z,2.97
2023-06-07T02:11:07.673Z,3.53
2023-06-07T02:13:36.616Z,3.45
2023-06-07T02:16:06.508Z,2.88
2023-06-07T02:18:38.142Z,3.25
2023-06-07T02:21:04.747Z,3.03
2023-06-07T02:23:31.137Z,2.90
2023-06-07T02:28:23.753Z,2.88
2023-06-07T02:30:50.152Z,2.92
2023-06-07T02:35:46.743Z,3.47
2023-06-07T02:38:13.622Z,2.97
2023-06-07T02:40:40.213Z,4.40
2023-06-07T02:43:06.589Z,3.15
2023-06-07T02:45:32.961Z,3.28
2023-06-07T02:50:25.878Z,3.40
2023-06-07T02:55:19.467Z,4.28
2023-06-07T03:00:12.651Z,3.05
2023-06-07T03:02:39.516Z,3.20
2023-06-07T03:05:06.919Z,3.75
2023-06-07T03:07:36.225Z,3.70
2023-06-07T03:10:04.107Z,3.55
2023-06-07T03:12:30.714Z,3.50
2023-06-07T03:14:57.048Z,3.85
2023-06-07T03:17:23.585Z,3.28
2023-06-07T03:19:50.664Z,3.38
2023-06-07T03:22:18.023Z,2.88
2023-06-07T03:24:44.366Z,3.55
2023-06-07T03:27:10.730Z,3.38
2023-06-07T03:29:37.098Z,3.38
2023-06-07T03:34:30.888Z,3.17
2023-06-07T03:36:57.423Z,3.75
2023-06-07T03:41:50.011Z,3.47
2023-06-07T03:44:16.330Z,3.30
2023-06-07T03:46:43.261Z,3.65
2023-06-07T03:49:09.657Z,3.38
2023-06-07T03:54:04.812Z,3.15
2023-06-07T03:58:58.184Z,3.33
2023-06-07T04:01:26.910Z,3.13
2023-06-07T04:03:53.592Z,3.60
2023-06-07T04:06:25.173Z,3.33
2023-06-07T04:08:53.362Z,4.40
2023-06-07T04:11:20.241Z,3.45
2023-06-07T04:13:46.569Z,3.70
2023-06-07T04:16:12.966Z,3.70
2023-06-07T04:21:06.859Z,3.28
2023-06-07T04:23:33.292Z,3.38
2023-06-07T04:28:28.615Z,3.72
2023-06-07T04:30:58.089Z,3.63
2023-06-07T04:33:24.755Z,3.90
2023-06-07T04:35:51.546Z,3.40
2023-06-07T04:38:23.352Z,3.63
2023-06-07T04:40:51.129Z,3.47
2023-06-07T04:43:21.407Z,3.60
2023-06-07T04:45:55.592Z,3.55
2023-06-07T04:48:27.010Z,3.85
2023-06-07T04:51:06.313Z,3.42
2023-06-07T04:56:04.820Z,5.22
2023-06-07T04:58:32.578Z,5.35
2023-06-07T05:00:59.000Z,5.85
2023-06-07T05:05:53.147Z,3.50
2023-06-07T05:08:19.643Z,4.10
2023-06-07T05:13:12.919Z,3.40
2023-06-07T05:15:40.559Z,3.42
2023-06-07T05:18:08.393Z,3.63
2023-06-07T05:20:34.994Z,4.22
2023-06-07T05:25:27.659Z,7.05
2023-06-07T05:28:08.133Z,4.82
2023-06-07T05:30:39.823Z,3.58
2023-06-07T05:33:07.477Z,3.72
2023-06-07T05:35:33.981Z,3.83
2023-06-07T05:40:26.831Z,3.35
2023-06-07T05:42:54.297Z,3.17
2023-06-07T05:45:22.003Z,3.45
2023-06-07T05:47:49.307Z,3.20
2023-06-07T05:50:16.178Z,3.72
2023-06-07T05:52:42.656Z,4.55
2023-06-07T05:57:36.369Z,4.80
2023-06-07T06:00:06.123Z,3.92
2023-06-07T06:02:32.972Z,3.67
2023-06-07T06:04:59.566Z,3.80
2023-06-07T06:07:26.096Z,3.78
2023-06-07T06:09:52.597Z,3.33
2023-06-07T06:12:19.086Z,4.95
2023-06-07T06:14:45.584Z,3.47
2023-06-07T06:17:12.091Z,3.25
2023-06-07T06:19:38.585Z,3.15
2023-06-07T06:24:31.415Z,3.10
2023-06-07T06:26:57.903Z,3.30
2023-06-07T06:29:26.400Z,3.22
2023-06-07T06:31:52.750Z,3.00
2023-06-07T06:36:46.982Z,2.63
2023-06-07T06:39:13.764Z,3.13
2023-06-07T06:41:40.226Z,3.63
2023-06-07T06:44:06.615Z,3.08
2023-06-07T06:46:33.026Z,3.15
2023-06-07T06:49:11.310Z,3.50
2023-06-07T06:51:38.876Z,2.92
2023-06-07T06:56:32.386Z,3.45
2023-06-07T06:58:58.726Z,3.15
2023-06-07T07:03:52.102Z,3.97
2023-06-07T07:06:19.501Z,2.95
2023-06-07T07:08:46.014Z,2.80
2023-06-07T07:11:12.731Z,3.85
2023-06-07T07:13:39.157Z,3.03
2023-06-07T07:16:05.942Z,3.15
2023-06-07T07:18:32.388Z,3.35
2023-06-07T07:20:58.935Z,3.53
2023-06-07T07:23:25.336Z,3.80
2023-06-07T07:25:51.793Z,3.63
2023-06-07T07:28:18.486Z,3.35
2023-06-07T07:30:44.840Z,3.55
2023-06-07T07:33:11.293Z,4.05
2023-06-07T07:35:37.740Z,3.50
2023-06-07T07:38:06.300Z,3.90
2023-06-07T07:40:32.656Z,3.70
2023-06-07T07:42:59.350Z,3.67
2023-06-07T07:45:26.401Z,3.25
2023-06-07T07:47:52.826Z,3.78
2023-06-07T07:50:19.227Z,4.05
2023-06-07T07:52:45.571Z,3.78
2023-06-07T07:55:12.276Z,3.60
2023-06-07T07:57:38.677Z,3.90
2023-06-07T08:00:07.220Z,3.47
2023-06-07T08:02:33.933Z,3.15
2023-06-07T08:05:00.327Z,3.60
2023-06-07T08:07:26.690Z,3.90
2023-06-07T08:09:53.102Z,3.83
2023-06-07T08:12:19.507Z,3.92
2023-06-07T08:14:46.093Z,4.15
2023-06-07T08:17:12.522Z,3.78
2023-06-07T08:19:38.948Z,3.53
2023-06-07T08:22:05.734Z,3.08
2023-06-07T08:24:32.268Z,3.38
2023-06-07T08:26:58.973Z,3.78
2023-06-07T08:29:26.619Z,3.05
2023-06-07T08:31:54.577Z,3.72
2023-06-07T08:34:27.782Z,3.42
2023-06-07T08:36:55.035Z,3.55
2023-06-07T08:39:22.024Z,4.20
2023-06-07T08:41:48.414Z,3.55
2023-06-07T08:44:14.771Z,3.72
2023-06-07T08:46:42.927Z,3.72
2023-06-07T08:49:11.912Z,3.63
2023-06-07T08:51:42.408Z,4.25
2023-06-07T08:54:11.455Z,4.20
2023-06-07T08:56:39.749Z,4.88
2023-06-07T08:59:06.786Z,5.43
2023-06-07T09:01:37.362Z,4.60
2023-06-07T09:04:04.320Z,6.05
2023-06-07T09:06:30.768Z,4.95
2023-06-07T09:08:57.698Z,6.20
2023-06-07T09:11:24.137Z,5.00
2023-06-07T09:13:50.806Z,5.80
2023-06-07T09:16:18.244Z,6.03
2023-06-07T09:18:55.155Z,5.68
2023-06-07T09:21:29.416Z,5.50
2023-06-07T09:24:01.486Z,5.47
2023-06-07T09:26:39.676Z,5.43
2023-06-07T09:29:10.604Z,5.95
2023-06-07T09:31:38.709Z,5.97
2023-06-07T09:34:25.671Z,5.38
2023-06-07T09:36:57.758Z,5.22
2023-06-07T09:39:26.288Z,5.82
2023-06-07T09:41:53.890Z,5.75
2023-06-07T09:44:29.873Z,5.88
2023-06-07T09:46:57.584Z,5.65
2023-06-07T09:49:28.449Z,6.38
2023-06-07T09:51:55.398Z,5.63
2023-06-07T09:54:37.626Z,6.18
2023-06-07T09:57:10.836Z,5.93
2023-06-07T09:59:38.606Z,6.78
2023-06-07T10:02:25.749Z,5.63
2023-06-07T10:04:57.367Z,6.07
2023-06-07T10:07:28.576Z,5.68
2023-06-07T10:09:58.645Z,6.25
2023-06-07T10:12:29.972Z,5.78
2023-06-07T10:14:59.733Z,6.65
2023-06-07T10:17:34.592Z,6.70
2023-06-07T10:20:03.714Z,6.20
2023-06-07T10:22:38.882Z,6.13
2023-06-07T10:25:17.508Z,6.97
2023-06-07T10:27:49.949Z,5.32
2023-06-07T10:32:45.383Z,5.82
2023-06-07T10:35:15.711Z,5.57
2023-06-07T10:37:43.867Z,5.22
2023-06-07T10:40:11.785Z,5.68
2023-06-07T10:42:42.557Z,5.28
2023-06-07T10:45:15.970Z,5.22
2023-06-07T10:47:43.152Z,5.60
2023-06-07T10:50:31.257Z,4.78
2023-06-07T10:52:59.526Z,5.97
2023-06-07T10:55:28.243Z,5.03
2023-06-07T10:57:55.416Z,5.97
2023-06-07T11:00:26.840Z,5.15
2023-06-07T11:03:22.620Z,5.03
2023-06-07T11:05:55.219Z,4.97
2023-06-07T11:08:22.878Z,5.85
2023-06-07T11:10:49.323Z,6.22
2023-06-07T11:13:15.831Z,4.97
2023-06-07T11:15:42.412Z,5.05
2023-06-07T11:18:14.944Z,5.20
2023-06-07T11:20:44.690Z,5.63
2023-06-07T11:23:31.513Z,5.32
2023-06-07T11:26:09.803Z,5.68
2023-06-07T11:28:40.769Z,5.82
2023-06-07T11:31:12.646Z,5.38
2023-06-07T11:33:41.910Z,5.25
2023-06-07T11:36:10.484Z,5.82
2023-06-07T11:38:38.418Z,5.75
2023-06-07T11:41:06.186Z,5.03
2023-06-07T11:43:32.855Z,5.72
2023-06-07T11:45:59.599Z,5.50
2023-06-07T11:48:30.420Z,5.30
2023-06-07T11:50:57.878Z,5.55
2023-06-07T11:53:24.725Z,4.55
2023-06-07T11:55:51.230Z,5.68
2023-06-07T11:58:17.673Z,4.97
2023-06-07T12:00:47.746Z,5.32
2023-06-07T12:03:14.853Z,5.25
2023-06-07T12:05:41.475Z,5.70
2023-06-07T12:08:16.368Z,5.40
2023-06-07T12:10:42.753Z,5.35
2023-06-07T12:13:23.034Z,7.13
2023-06-07T12:15:53.295Z,5.25
2023-06-07T12:18:23.770Z,5.35
2023-06-07T12:21:05.689Z,4.45
2023-06-07T12:23:32.834Z,5.18
2023-06-07T12:26:08.116Z,5.05
2023-06-07T12:28:34.862Z,4.93
2023-06-07T12:31:01.266Z,6.22
2023-06-07T12:33:28.581Z,5.25
2023-06-07T12:36:01.739Z,4.75
2023-06-07T12:38:28.323Z,4.93
2023-06-07T12:40:54.741Z,5.30
2023-06-07T12:43:21.198Z,5.55
2023-06-07T12:45:47.640Z,5.00
2023-06-07T12:48:14.029Z,4.53
2023-06-07T12:50:40.437Z,5.45
2023-06-07T12:53:07.092Z,5.90
2023-06-07T12:55:33.510Z,5.43
2023-06-07T12:58:00.447Z,5.45
2023-06-07T13:00:26.988Z,5.22
2023-06-07T13:02:53.633Z,4.05
2023-06-07T13:05:20.407Z,5.07
2023-06-07T13:07:47.047Z,4.68
2023-06-07T13:10:13.940Z,5.03
2023-06-07T13:12:40.824Z,4.15
2023-06-07T13:15:07.925Z,4.53
2023-06-07T13:17:35.503Z,4.57
2023-06-07T13:20:02.243Z,5.82
2023-06-07T13:22:31.898Z,4.28
2023-06-07T13:24:58.774Z,3.97
2023-06-07T13:27:27.766Z,4.63
2023-06-07T13:29:54.680Z,5.78
2023-06-07T13:32:21.194Z,5.32
2023-06-07T13:34:47.676Z,4.80
2023-06-07T13:37:14.066Z,4.28
2023-06-07T13:39:40.640Z,5.10
2023-06-07T13:42:07.600Z,5.57
2023-06-07T13:44:34.463Z,4.90
2023-06-07T13:47:01.940Z,4.80
2023-06-07T13:49:28.467Z,4.15
2023-06-07T13:51:55.089Z,4.65
2023-06-07T13:54:21.406Z,3.97
2023-06-07T13:56:47.798Z,4.85
2023-06-07T13:59:14.919Z,4.43
2023-06-07T14:01:41.429Z,3.97
2023-06-07T14:04:08.588Z,4.50
2023-06-07T14:06:35.498Z,4.88
2023-06-07T14:09:02.060Z,4.47
2023-06-07T14:11:28.568Z,4.50
2023-06-07T14:13:54.900Z,4.82
2023-06-07T14:16:21.912Z,3.97
2023-06-07T14:18:48.954Z,4.60
2023-06-07T14:21:15.785Z,4.30
2023-06-07T14:23:42.842Z,4.70
2023-06-07T14:26:09.752Z,4.43
2023-06-07T14:28:36.290Z,4.72
2023-06-07T14:31:02.863Z,4.07
2023-06-07T14:33:29.271Z,3.97
2023-06-07T14:35:55.612Z,4.55
2023-06-07T14:38:22.003Z,4.25
2023-06-07T14:40:48.442Z,4.38
2023-06-07T14:43:14.767Z,3.88
2023-06-07T14:45:41.141Z,4.03
2023-06-07T14:48:07.525Z,4.40
2023-06-07T14:50:34.930Z,4.28
2023-06-07T14:53:01.685Z,4.10
2023-06-07T14:55:28.119Z,3.88
2023-06-07T14:57:54.855Z,4.32
2023-06-07T15:00:21.777Z,4.30
2023-06-07T15:02:48.207Z,4.25
2023-06-07T15:05:14.917Z,4.07
2023-06-07T15:07:41.276Z,4.80
2023-06-07T15:10:08.315Z,4.65
2023-06-07T15:12:34.873Z,4.43
2023-06-07T15:15:01.289Z,4.18
2023-06-07T15:17:27.711Z,4.55
2023-06-07T15:19:54.452Z,4.57
2023-06-07T15:22:20.965Z,4.65
2023-06-07T15:24:50.277Z,4.47
2023-06-07T15:27:16.663Z,4.78
2023-06-07T15:29:43.120Z,7.43
2023-06-07T15:32:09.642Z,4.28
2023-06-07T15:34:36.040Z,4.97
2023-06-07T15:37:02.519Z,4.90
2023-06-07T15:39:28.882Z,4.88
2023-06-07T15:41:55.332Z,5.10
2023-06-07T15:44:21.899Z,4.80
2023-06-07T15:46:49.161Z,4.75
2023-06-07T15:49:18.034Z,5.38
2023-06-07T15:51:44.537Z,4.63
2023-06-07T15:54:10.958Z,4.65
2023-06-07T15:56:37.816Z,5.25
2023-06-07T15:59:04.211Z,4.95
2023-06-07T16:01:30.767Z,4.75
2023-06-07T16:03:57.352Z,4.80
2023-06-07T16:06:24.031Z,4.30
2023-06-07T16:08:51.264Z,4.65
2023-06-07T16:11:17.711Z,5.15
2023-06-07T16:13:44.044Z,4.47
2023-06-07T16:16:10.406Z,5.43
2023-06-07T16:18:37.824Z,4.85
2023-06-07T16:21:04.191Z,5.20
2023-06-07T16:23:30.626Z,4.75
2023-06-07T16:25:57.035Z,5.30
2023-06-07T16:28:23.484Z,5.25
2023-06-07T16:30:49.869Z,5.25
2023-06-07T16:33:16.310Z,5.13
2023-06-07T16:35:43.674Z,4.85
2023-06-07T16:38:10.065Z,4.82
2023-06-07T16:40:36.419Z,5.10
2023-06-07T16:43:02.782Z,5.05
2023-06-07T16:45:29.234Z,4.85
2023-06-07T16:47:55.687Z,4.97
2023-06-07T16:50:22.069Z,5.80
2023-06-07T16:52:48.527Z,4.82
2023-06-07T16:55:14.978Z,5.18
2023-06-07T16:57:41.344Z,4.75
2023-06-07T17:00:08.594Z,5.15
2023-06-07T17:02:35.262Z,5.03
2023-06-07T17:05:01.801Z,4.80
2023-06-07T17:07:28.124Z,5.75
2023-06-07T17:09:54.533Z,5.18
2023-06-07T17:12:21.048Z,4.55
2023-06-07T17:14:49.572Z,6.55
2023-06-07T17:17:16.454Z,8.70
2023-06-07T17:19:43.507Z,7.75
2023-06-07T17:22:10.087Z,11.45
2023-06-07T17:24:37.034Z,7.38
2023-06-07T17:27:06.403Z,5.05
2023-06-07T17:29:32.781Z,5.20
2023-06-07T17:31:59.246Z,4.97
2023-06-07T17:34:25.819Z,4.63
2023-06-07T17:36:52.669Z,5.45
2023-06-07T17:39:20.957Z,5.03
2023-06-07T17:41:47.294Z,5.53
2023-06-07T17:44:13.613Z,5.03
2023-06-07T17:46:40.104Z,5.35
2023-06-07T17:49:06.471Z,5.35
2023-06-07T17:51:33.271Z,5.72
2023-06-07T17:54:01.575Z,5.32
2023-06-07T17:56:28.716Z,5.80
2023-06-07T17:58:56.265Z,7.10
2023-06-07T18:01:23.620Z,5.75
2023-06-07T18:03:51.802Z,5.70
2023-06-07T18:06:22.388Z,5.55
2023-06-07T18:08:48.758Z,5.32
2023-06-07T18:11:15.420Z,5.97
2023-06-07T18:13:41.885Z,5.55
2023-06-07T18:16:08.293Z,6.32
2023-06-07T18:18:35.289Z,5.00
2023-06-07T18:21:01.872Z,5.40
2023-06-07T18:23:28.424Z,5.57
2023-06-07T18:25:54.873Z,5.85
2023-06-07T18:28:21.259Z,5.18
2023-06-07T18:30:47.786Z,5.55
2023-06-07T18:33:14.175Z,5.63
2023-06-07T18:35:40.568Z,6.13
2023-06-07T18:38:06.968Z,5.82
2023-06-07T18:40:33.575Z,5.22
2023-06-07T18:42:59.930Z,5.70
2023-06-07T18:45:26.954Z,6.32
2023-06-07T18:47:53.533Z,6.30
2023-06-07T18:50:21.080Z,6.18
2023-06-07T18:52:47.566Z,6.47
2023-06-07T18:55:14.015Z,6.72
2023-06-07T18:57:40.789Z,5.90
2023-06-07T19:00:07.918Z,5.85
2023-06-07T19:02:34.536Z,6.13
2023-06-07T19:05:01.088Z,5.90
2023-06-07T19:07:27.499Z,5.82
2023-06-07T19:09:53.918Z,6.40
2023-06-07T19:12:20.528Z,6.75
2023-06-07T19:14:46.972Z,6.53
2023-06-07T19:17:14.123Z,6.53
2023-06-07T19:19:40.576Z,7.05
2023-06-07T19:22:09.935Z,7.10
2023-06-07T19:24:43.414Z,6.72
2023-06-07T19:27:11.263Z,6.70
2023-06-07T19:29:38.914Z,6.57
2023-06-07T19:32:07.845Z,6.97
2023-06-07T19:34:36.010Z,6.68
2023-06-07T19:37:03.059Z,6.30
2023-06-07T19:39:29.718Z,6.88
2023-06-07T19:42:00.994Z,6.60
2023-06-07T19:44:28.009Z,7.00
2023-06-07T19:46:54.891Z,6.57
2023-06-07T19:49:21.489Z,7.00
2023-06-07T19:51:47.870Z,7.15
2023-06-07T19:54:14.327Z,6.68
2023-06-07T19:56:40.686Z,6.82
2023-06-07T19:59:07.612Z,6.95
2023-06-07T20:01:34.229Z,6.55
2023-06-07T20:04:00.988Z,7.07
2023-06-07T20:06:27.401Z,6.60
2023-06-07T20:08:54.257Z,7.82
2023-06-07T20:11:21.958Z,7.25
2023-06-07T20:13:48.464Z,7.65
2023-06-07T20:16:14.840Z,7.80
2023-06-07T20:18:41.910Z,8.35
2023-06-07T20:21:08.289Z,8.07
2023-06-07T20:23:34.628Z,6.88
2023-06-07T20:26:01.181Z,7.15
2023-06-07T20:28:27.541Z,7.60
2023-06-07T20:30:53.912Z,7.00
2023-06-07T20:33:20.293Z,7.57
2023-06-07T20:35:46.622Z,6.55
2023-06-07T20:38:12.983Z,7.15
2023-06-07T20:40:39.380Z,7.00
2023-06-07T20:43:05.803Z,7.05
2023-06-07T20:45:32.171Z,6.90
2023-06-07T20:47:58.542Z,7.30
2023-06-07T20:50:25.042Z,7.47
2023-06-07T20:52:51.591Z,6.38
2023-06-07T20:55:17.944Z,7.57
2023-06-07T20:57:44.280Z,7.43
2023-06-07T21:00:11.764Z,7.15
2023-06-07T21:02:38.524Z,7.13
2023-06-07T21:05:05.367Z,7.82
2023-06-07T21:07:31.732Z,6.68
2023-06-07T21:09:58.080Z,7.00
2023-06-07T21:12:24.394Z,7.28
2023-06-07T21:14:52.240Z,6.78
2023-06-07T21:17:18.617Z,6.88
2023-06-07T21:19:45.139Z,7.40
2023-06-07T21:22:11.473Z,7.00
2023-06-07T21:24:37.801Z,7.30
2023-06-07T21:27:04.501Z,6.78
2023-06-07T21:29:30.854Z,6.22
2023-06-07T21:31:57.295Z,6.55
2023-06-07T21:34:23.621Z,7.22
2023-06-07T21:36:50.231Z,7.50
2023-06-07T21:39:16.653Z,6.75
2023-06-07T21:41:43.085Z,7.15
2023-06-07T21:44:09.716Z,6.47
2023-06-07T21:46:36.124Z,7.53
2023-06-07T21:49:02.578Z,7.13
2023-06-07T21:51:28.990Z,7.55
2023-06-07T21:53:55.483Z,7.18
2023-06-07T21:56:21.951Z,7.75
2023-06-07T21:58:48.281Z,6.90
2023-06-07T22:01:14.857Z,6.88
2023-06-07T22:03:41.263Z,6.70
2023-06-07T22:06:07.616Z,6.60
2023-06-07T22:08:33.953Z,6.50
2023-06-07T22:11:00.356Z,6.90
2023-06-07T22:13:26.730Z,7.22
2023-06-07T22:15:53.093Z,7.45
2023-06-07T22:18:20.384Z,7.28
2023-06-07T22:20:47.892Z,7.18
2023-06-07T22:23:14.543Z,6.55
2023-06-07T22:25:41.968Z,6.97
2023-06-07T22:28:10.684Z,7.00
2023-06-07T22:30:40.133Z,7.68
2023-06-07T22:33:08.616Z,7.28
2023-06-07T22:35:35.865Z,6.72
2023-06-07T22:38:06.180Z,6.80
2023-06-07T22:40:34.273Z,6.55
2023-06-07T22:43:01.459Z,7.80
2023-06-07T22:45:29.353Z,6.95
2023-06-07T22:48:10.523Z,7.07
2023-06-07T22:50:38.526Z,7.22
2023-06-07T22:53:06.544Z,6.95
2023-06-07T22:55:33.811Z,6.97
2023-06-07T22:58:01.745Z,7.25
2023-06-07T23:00:29.225Z,6.28
2023-06-07T23:02:58.394Z,7.10
2023-06-07T23:05:28.212Z,8.02
2023-06-07T23:07:56.529Z,7.35
2023-06-07T23:10:35.677Z,6.00
2023-06-07T23:13:08.886Z,6.63
2023-06-07T23:15:37.097Z,6.45
2023-06-07T23:18:03.882Z,7.00
2023-06-07T23:20:33.657Z,7.25
2023-06-07T23:23:03.817Z,7.88
2023-06-07T23:25:30.948Z,7.10
2023-06-07T23:27:58.270Z,7.80
2023-06-07T23:30:24.654Z,7.28
2023-06-07T23:35:17.400Z,7.45
2023-06-07T23:40:10.784Z,7.32
2023-06-07T23:42:37.137Z,6.78
2023-06-07T23:45:04.437Z,6.68
2023-06-07T23:47:31.187Z,7.22
2023-06-07T23:49:57.596Z,8.00
2023-06-07T23:52:23.925Z,6.70
2023-06-07T23:54:50.291Z,7.68
2023-06-07T23:57:16.827Z,6.85
2023-06-07T23:59:43.179Z,7.20
